createdAt,value
2023-01-01T00:00:18.564Z,74.09
2023-01-01T00:03:04.671Z,74.21
2023-01-01T00:05:50.870Z,74.14
2023-01-01T00:08:40.312Z,74.23
2023-01-01T00:11:26.821Z,74.55
2023-01-01T00:14:12.914Z,74.20
2023-01-01T00:17:02.110Z,74.48
2023-01-01T00:19:47.795Z,74.59
2023-01-01T00:22:53.860Z,74.42
2023-01-01T00:25:45.214Z,74.36
2023-01-01T00:28:32.066Z,74.16
2023-01-01T00:31:19.926Z,74.51
2023-01-01T00:34:05.541Z,74.57
2023-01-01T00:36:51.110Z,74.67
2023-01-01T00:39:36.737Z,74.86
2023-01-01T00:42:22.465Z,74.61
2023-01-01T00:45:08.474Z,74.64
2023-01-01T00:47:54.315Z,74.71
2023-01-01T00:50:39.723Z,74.65
2023-01-01T00:53:25.366Z,74.87
2023-01-01T00:56:11.054Z,75.16
2023-01-01T00:59:00.840Z,74.74
2023-01-01T01:01:47.754Z,74.89
2023-01-01T01:04:33.186Z,75.04
2023-01-01T01:07:18.797Z,75.04
2023-01-01T01:10:04.829Z,74.64
2023-01-01T01:12:50.484Z,75.06
2023-01-01T01:15:35.871Z,75.02
2023-01-01T01:18:21.160Z,75.45
2023-01-01T01:21:08.080Z,75.33
2023-01-01T01:23:54.254Z,75.16
2023-01-01T01:26:40.297Z,75.17
2023-01-01T01:29:27.075Z,75.37
2023-01-01T01:32:12.868Z,75.39
2023-01-01T01:34:58.503Z,75.32
2023-01-01T01:37:44.023Z,75.53
2023-01-01T01:40:29.644Z,75.43
2023-01-01T01:43:23.231Z,75.46
2023-01-01T01:46:21.962Z,75.31
2023-01-01T01:49:16.409Z,75.62
2023-01-01T01:52:02.265Z,75.37
2023-01-01T01:54:48.062Z,75.66
2023-01-01T01:57:34.080Z,75.37
2023-01-01T02:00:19.885Z,75.73
2023-01-01T02:03:12.522Z,75.60
2023-01-01T02:05:59.068Z,75.39
2023-01-01T02:08:44.877Z,75.49
2023-01-01T02:11:31.422Z,75.70
2023-01-01T02:14:17.407Z,75.49
2023-01-01T02:17:14.558Z,75.43
2023-01-01T02:20:34.532Z,75.27
2023-01-01T02:24:06.689Z,74.76
2023-01-01T02:27:09.904Z,75.01
2023-01-01T02:30:02.429Z,74.91
2023-01-01T02:32:54.537Z,74.86
2023-01-01T02:35:42.621Z,74.83
2023-01-01T02:38:35.132Z,74.95
2023-01-01T02:41:25.076Z,74.77
2023-01-01T02:44:11.847Z,74.83
2023-01-01T02:46:57.525Z,74.77
2023-01-01T02:50:24.134Z,74.63
2023-01-01T02:53:29.569Z,74.05
2023-01-01T02:56:35.131Z,74.37
2023-01-01T02:59:51.965Z,74.63
2023-01-01T03:02:55.860Z,74.60
2023-01-01T03:06:19.782Z,74.70
2023-01-01T03:09:28.685Z,74.73
2023-01-01T03:12:40.022Z,74.74
2023-01-01T03:15:25.499Z,74.71
2023-01-01T03:18:18.317Z,74.84
2023-01-01T03:21:06.573Z,74.63
2023-01-01T03:23:54.921Z,74.55
2023-01-01T03:26:41.955Z,74.84
2023-01-01T03:29:32.083Z,75.02
2023-01-01T03:32:22.785Z,74.72
2023-01-01T03:35:08.848Z,74.92
2023-01-01T03:37:58.798Z,74.99
2023-01-01T03:40:47.487Z,74.74
2023-01-01T03:43:58.008Z,74.53
2023-01-01T03:46:43.400Z,74.89
2023-01-01T03:49:30.610Z,74.73
2023-01-01T03:52:19.273Z,74.99
2023-01-01T03:55:08.443Z,74.79
2023-01-01T03:58:03.388Z,74.96
2023-01-01T04:01:09.469Z,74.89
2023-01-01T04:03:56.243Z,74.81
2023-01-01T04:06:42.137Z,74.57
2023-01-01T04:09:33.072Z,74.42
2023-01-01T04:12:19.546Z,74.64
2023-01-01T04:15:06.631Z,74.30
2023-01-01T04:17:53.005Z,74.33
2023-01-01T04:20:38.644Z,74.32
2023-01-01T04:23:24.875Z,74.62
2023-01-01T04:26:15.250Z,74.27
2023-01-01T04:29:00.761Z,73.99
2023-01-01T04:31:47.142Z,74.22
2023-01-01T04:34:33.989Z,74.10
2023-01-01T04:37:20.283Z,74.12
2023-01-01T04:40:06.529Z,73.81
2023-01-01T04:42:54.142Z,73.88
2023-01-01T04:45:39.604Z,73.84
2023-01-01T04:48:25.284Z,73.64
2023-01-01T04:51:13.172Z,73.75
2023-01-01T04:53:59.475Z,73.74
2023-01-01T04:56:44.794Z,73.57
2023-01-01T04:59:30.926Z,73.70
2023-01-01T05:02:16.465Z,73.44
2023-01-01T05:05:03.525Z,73.75
2023-01-01T05:07:48.852Z,73.18
2023-01-01T05:10:34.279Z,73.56
2023-01-01T05:13:19.649Z,73.61
2023-01-01T05:16:10.401Z,73.34
2023-01-01T05:18:56.142Z,73.26
2023-01-01T05:21:41.775Z,73.75
2023-01-01T05:24:27.061Z,73.35
2023-01-01T05:27:12.410Z,73.62
2023-01-01T05:29:58.616Z,73.33
2023-01-01T05:32:44.159Z,73.45
2023-01-01T05:35:29.755Z,73.49
2023-01-01T05:38:14.961Z,73.73
2023-01-01T05:41:05.144Z,73.46
2023-01-01T05:43:52.057Z,73.73
2023-01-01T05:46:37.566Z,73.56
2023-01-01T05:49:22.838Z,73.51
2023-01-01T05:52:08.621Z,73.68
2023-01-01T05:54:54.133Z,73.50
2023-01-01T05:57:39.585Z,73.53
2023-01-01T06:00:24.914Z,73.75
2023-01-01T06:03:10.276Z,73.51
2023-01-01T06:05:55.711Z,73.08
2023-01-01T06:08:41.918Z,73.55
2023-01-01T06:11:29.555Z,73.59
2023-01-01T06:14:14.844Z,73.52
2023-01-01T06:17:00.166Z,73.47
2023-01-01T06:19:45.873Z,73.57
2023-01-01T06:22:31.514Z,73.32
2023-01-01T06:25:16.886Z,73.17
2023-01-01T06:28:03.500Z,73.18
2023-01-01T06:30:49.329Z,73.04
2023-01-01T06:33:35.373Z,73.06
2023-01-01T06:36:24.378Z,72.80
2023-01-01T06:39:10.134Z,72.79
2023-01-01T06:41:55.670Z,72.84
2023-01-01T06:44:41.170Z,72.75
2023-01-01T06:47:28.214Z,72.46
2023-01-01T06:50:14.560Z,72.12
2023-01-01T06:52:59.926Z,72.05
2023-01-01T06:55:54.923Z,72.00
2023-01-01T06:58:42.730Z,71.80
2023-01-01T07:01:31.140Z,71.65
2023-01-01T07:04:17.184Z,71.26
2023-01-01T07:07:02.628Z,71.70
2023-01-01T07:09:48.138Z,71.49
2023-01-01T07:12:34.335Z,71.15
2023-01-01T07:15:19.932Z,70.87
2023-01-01T07:18:06.110Z,70.89
2023-01-01T07:20:53.757Z,70.65
2023-01-01T07:23:39.487Z,70.65
2023-01-01T07:26:26.322Z,70.18
2023-01-01T07:29:13.037Z,69.55
2023-01-01T07:31:58.572Z,69.90
2023-01-01T07:34:50.274Z,69.78
2023-01-01T07:37:36.772Z,69.50
2023-01-01T07:40:22.439Z,68.88
2023-01-01T07:43:09.332Z,68.55
2023-01-01T07:45:54.893Z,68.03
2023-01-01T07:48:40.456Z,67.80
2023-01-01T07:51:26.021Z,67.71
2023-01-01T07:54:12.519Z,67.54
2023-01-01T07:56:58.938Z,67.50
2023-01-01T07:59:44.316Z,67.56
2023-01-01T08:02:29.892Z,67.41
2023-01-01T08:05:18.744Z,67.43
2023-01-01T08:08:09.407Z,67.51
2023-01-01T08:11:03.923Z,67.05
2023-01-01T08:13:50.758Z,67.24
2023-01-01T08:16:36.346Z,67.08
2023-01-01T08:19:21.880Z,67.02
2023-01-01T08:22:07.545Z,67.29
2023-01-01T08:24:53.348Z,66.97
2023-01-01T08:27:38.890Z,67.06
2023-01-01T08:30:24.441Z,66.95
2023-01-01T08:33:09.891Z,67.25
2023-01-01T08:35:55.518Z,66.82
2023-01-01T08:38:40.904Z,66.99
2023-01-01T08:41:26.798Z,66.92
2023-01-01T08:44:12.085Z,66.74
2023-01-01T08:46:57.663Z,66.72
2023-01-01T08:49:43.066Z,66.68
2023-01-01T08:52:28.711Z,66.59
2023-01-01T08:55:14.093Z,66.38
2023-01-01T08:57:59.602Z,66.28
2023-01-01T09:00:45.034Z,66.41
2023-01-01T09:03:30.742Z,66.50
2023-01-01T09:06:16.479Z,66.24
2023-01-01T09:09:01.977Z,66.25
2023-01-01T09:11:56.153Z,65.95
2023-01-01T09:14:41.748Z,65.42
2023-01-01T09:17:27.155Z,65.31
2023-01-01T09:20:20.469Z,64.97
2023-01-01T09:23:08.659Z,64.69
2023-01-01T09:25:54.382Z,64.32
2023-01-01T09:28:40.269Z,64.49
2023-01-01T09:31:27.102Z,64.30
2023-01-01T09:34:25.969Z,64.42
2023-01-01T09:37:13.665Z,64.16
2023-01-01T09:40:00.523Z,64.29
2023-01-01T09:42:51.470Z,64.08
2023-01-01T09:45:49.323Z,64.01
2023-01-01T09:48:40.732Z,63.77
2023-01-01T09:51:29.991Z,64.01
2023-01-01T09:54:36.589Z,63.94
2023-01-01T09:57:11.372Z,63.83
2023-01-01T09:59:41.409Z,63.78
2023-01-01T10:02:37.803Z,63.87
2023-01-01T10:05:32.755Z,63.67
2023-01-01T10:09:04.537Z,63.79
2023-01-01T10:12:02.664Z,63.75
2023-01-01T10:15:04.507Z,63.54
2023-01-01T10:17:58.105Z,63.44
2023-01-01T10:21:11.390Z,63.55
2023-01-01T10:24:05.879Z,63.42
2023-01-01T10:26:55.482Z,63.52
2023-01-01T10:29:46.636Z,63.48
2023-01-01T10:32:36.724Z,63.54
2023-01-01T10:35:48.767Z,63.04
2023-01-01T10:38:36.935Z,62.88
2023-01-01T10:41:22.982Z,62.52
2023-01-01T10:44:09.658Z,63.12
2023-01-01T10:47:05.116Z,62.60
2023-01-01T10:50:28.789Z,62.78
2023-01-01T10:53:26.880Z,62.59
2023-01-01T10:56:18.231Z,62.73
2023-01-01T10:59:04.029Z,62.46
2023-01-01T11:02:14.965Z,62.33
2023-01-01T11:05:21.110Z,62.19
2023-01-01T11:08:19.544Z,62.28
2023-01-01T11:11:06.060Z,62.10
2023-01-01T11:13:54.455Z,62.40
2023-01-01T11:16:40.512Z,61.83
2023-01-01T11:19:37.195Z,62.20
2023-01-01T11:22:46.824Z,62.52
2023-01-01T11:25:33.150Z,61.92
2023-01-01T11:28:22.170Z,61.84
2023-01-01T11:31:13.102Z,62.28
2023-01-01T11:33:58.903Z,61.76
2023-01-01T11:36:44.449Z,61.96
2023-01-01T11:39:32.121Z,61.70
2023-01-01T11:42:20.675Z,61.57
2023-01-01T11:45:20.632Z,61.85
2023-01-01T11:48:14.371Z,61.82
2023-01-01T11:51:08.519Z,61.88
2023-01-01T11:54:09.408Z,61.90
2023-01-01T11:57:01.229Z,61.99
2023-01-01T11:59:55.421Z,61.65
2023-01-01T12:02:49.064Z,61.86
2023-01-01T12:05:56.773Z,61.67
2023-01-01T12:08:54.721Z,61.94
2023-01-01T12:11:46.176Z,61.82
2023-01-01T12:15:11.161Z,61.94
2023-01-01T12:18:15.297Z,61.84
2023-01-01T12:21:08.617Z,62.00
2023-01-01T12:23:55.370Z,62.10
2023-01-01T12:26:51.751Z,62.42
2023-01-01T12:29:59.329Z,62.16
2023-01-01T12:33:23.081Z,62.46
2023-01-01T12:36:48.340Z,62.19
2023-01-01T12:40:15.012Z,62.41
2023-01-01T12:43:16.916Z,62.48
2023-01-01T12:46:24.405Z,62.18
2023-01-01T12:49:33.375Z,62.29
2023-01-01T12:52:37.903Z,62.39
2023-01-01T12:55:46.951Z,62.48
2023-01-01T12:58:40.725Z,62.04
2023-01-01T13:01:34.100Z,61.56
2023-01-01T13:04:22.340Z,62.04
2023-01-01T13:07:13.144Z,61.79
2023-01-01T13:10:08.763Z,61.72
2023-01-01T13:12:56.134Z,61.85
2023-01-01T13:15:43.237Z,62.20
2023-01-01T13:18:34.405Z,62.00
2023-01-01T13:21:22.876Z,62.25
2023-01-01T13:24:21.342Z,62.29
2023-01-01T13:27:10.916Z,62.46
2023-01-01T13:29:56.807Z,62.46
2023-01-01T13:33:17.617Z,62.89
2023-01-01T13:36:13.200Z,62.86
2023-01-01T13:39:02.106Z,63.08
2023-01-01T13:41:47.696Z,63.79
2023-01-01T13:44:33.032Z,63.46
2023-01-01T13:47:48.030Z,63.13
2023-01-01T13:50:44.354Z,63.34
2023-01-01T13:53:36.037Z,63.37
2023-01-01T13:57:08.061Z,62.97
2023-01-01T14:00:05.764Z,62.75
2023-01-01T14:03:00.785Z,62.80
2023-01-01T14:05:56.041Z,62.64
2023-01-01T14:08:42.340Z,62.66
2023-01-01T14:11:29.285Z,62.52
2023-01-01T14:14:28.299Z,63.02
2023-01-01T14:17:16.006Z,62.79
2023-01-01T14:20:07.111Z,62.57
2023-01-01T14:22:53.691Z,62.12
2023-01-01T14:25:42.438Z,62.31
2023-01-01T14:28:33.123Z,62.00
2023-01-01T14:31:23.005Z,62.10
2023-01-01T14:34:28.923Z,62.10
2023-01-01T14:37:25.349Z,62.23
2023-01-01T14:40:28.819Z,63.10
2023-01-01T14:43:14.301Z,63.62
2023-01-01T14:45:59.971Z,64.20
2023-01-01T14:48:49.811Z,64.86
2023-01-01T14:51:44.088Z,65.31
2023-01-01T14:54:35.721Z,65.73
2023-01-01T14:57:25.682Z,66.09
2023-01-01T15:00:23.255Z,66.25
2023-01-01T15:03:15.286Z,66.59
2023-01-01T15:06:02.183Z,66.97
2023-01-01T15:08:51.363Z,66.67
2023-01-01T15:11:37.030Z,66.90
2023-01-01T15:14:45.584Z,67.20
2023-01-01T15:17:45.815Z,67.24
2023-01-01T15:20:32.907Z,67.45
2023-01-01T15:23:19.435Z,67.70
2023-01-01T15:26:10.944Z,67.92
2023-01-01T15:28:59.235Z,68.13
2023-01-01T15:31:49.355Z,68.51
2023-01-01T15:34:56.196Z,68.88
2023-01-01T15:37:45.835Z,68.95
2023-01-01T15:40:35.092Z,69.04
2023-01-01T15:43:22.066Z,69.21
2023-01-01T15:46:19.594Z,69.48
2023-01-01T15:49:28.665Z,69.68
2023-01-01T15:52:23.161Z,69.72
2023-01-01T15:55:15.784Z,69.93
2023-01-01T15:58:03.235Z,69.54
2023-01-01T16:01:02.368Z,69.45
2023-01-01T16:03:52.326Z,69.31
2023-01-01T16:06:46.590Z,69.35
2023-01-01T16:09:35.960Z,69.33
2023-01-01T16:12:21.554Z,69.55
2023-01-01T16:15:08.634Z,69.71
2023-01-01T16:17:55.317Z,69.59
2023-01-01T16:20:40.729Z,69.25
2023-01-01T16:23:28.582Z,69.28
2023-01-01T16:26:15.339Z,69.16
2023-01-01T16:29:00.650Z,69.21
2023-01-01T16:31:47.615Z,68.90
2023-01-01T16:34:33.127Z,68.98
2023-01-01T16:37:22.659Z,69.07
2023-01-01T16:40:09.556Z,68.87
2023-01-01T16:42:55.360Z,69.13
2023-01-01T16:45:40.809Z,69.10
2023-01-01T16:48:26.352Z,68.99
2023-01-01T16:51:22.704Z,68.68
2023-01-01T16:54:08.531Z,68.90
2023-01-01T16:56:54.176Z,68.93
2023-01-01T16:59:39.521Z,68.97
2023-01-01T17:02:27.528Z,68.96
2023-01-01T17:05:13.190Z,68.88
2023-01-01T17:07:59.955Z,69.07
2023-01-01T17:10:46.707Z,68.70
2023-01-01T17:13:35.366Z,69.23
2023-01-01T17:16:26.379Z,69.22
2023-01-01T17:19:15.152Z,69.38
2023-01-01T17:22:08.237Z,69.40
2023-01-01T17:24:55.611Z,69.83
2023-01-01T17:27:41.544Z,69.68
2023-01-01T17:30:27.112Z,69.97
2023-01-01T17:33:13.174Z,69.79
2023-01-01T17:36:00.446Z,70.00
2023-01-01T17:38:46.831Z,70.74
2023-01-01T17:41:33.269Z,70.57
2023-01-01T17:44:20.400Z,70.61
2023-01-01T17:47:06.475Z,70.78
2023-01-01T17:49:51.995Z,71.13
2023-01-01T17:52:37.485Z,71.36
2023-01-01T17:55:23.343Z,71.38
2023-01-01T17:58:09.587Z,71.31
2023-01-01T18:01:12.454Z,71.41
2023-01-01T18:04:06.561Z,71.66
2023-01-01T18:06:54.617Z,71.68
2023-01-01T18:09:43.569Z,71.61
2023-01-01T18:12:30.601Z,71.47
2023-01-01T18:15:16.426Z,71.14
2023-01-01T18:18:02.689Z,70.97
2023-01-01T18:20:48.171Z,71.12
2023-01-01T18:23:39.945Z,71.13
2023-01-01T18:26:29.795Z,71.27
2023-01-01T18:29:15.390Z,71.27
2023-01-01T18:32:02.492Z,70.82
2023-01-01T18:34:49.132Z,70.89
2023-01-01T18:37:36.851Z,71.15
2023-01-01T18:40:24.655Z,70.98
2023-01-01T18:43:20.596Z,70.72
2023-01-01T18:46:33.599Z,70.83
2023-01-01T18:49:20.788Z,71.14
2023-01-01T18:52:25.854Z,70.90
2023-01-01T18:55:18.224Z,70.64
2023-01-01T18:58:20.927Z,71.12
2023-01-01T19:01:14.573Z,70.87
2023-01-01T19:04:02.157Z,70.71
2023-01-01T19:06:47.500Z,71.08
2023-01-01T19:09:32.969Z,70.95
2023-01-01T19:12:19.867Z,70.97
2023-01-01T19:15:19.557Z,71.14
2023-01-01T19:18:15.146Z,70.68
2023-01-01T19:21:14.987Z,70.63
2023-01-01T19:24:02.282Z,70.66
2023-01-01T19:26:48.695Z,71.17
2023-01-01T19:29:40.674Z,71.04
2023-01-01T19:32:26.457Z,71.43
2023-01-01T19:35:16.452Z,71.72
2023-01-01T19:38:02.342Z,71.59
2023-01-01T19:40:48.419Z,71.58
2023-01-01T19:43:36.211Z,71.50
2023-01-01T19:46:22.042Z,71.60
2023-01-01T19:49:07.516Z,71.69
2023-01-01T19:51:54.700Z,71.78
2023-01-01T19:54:40.784Z,71.91
2023-01-01T19:57:26.920Z,71.30
2023-01-01T20:00:12.965Z,71.24
2023-01-01T20:03:25.875Z,71.91
2023-01-01T20:06:07.937Z,71.88
2023-01-01T20:08:53.972Z,72.06
2023-01-01T20:11:40.250Z,72.14
2023-01-01T20:14:26.525Z,72.20
2023-01-01T20:17:12.352Z,72.53
2023-01-01T20:19:58.572Z,72.55
2023-01-01T20:22:44.078Z,72.75
2023-01-01T20:25:30.294Z,72.58
2023-01-01T20:28:37.428Z,72.70
2023-01-01T20:31:26.780Z,73.15
2023-01-01T20:34:12.891Z,72.89
2023-01-01T20:37:17.389Z,73.42
2023-01-01T20:40:12.150Z,73.62
2023-01-01T20:42:58.004Z,73.50
2023-01-01T20:45:43.615Z,73.69
2023-01-01T20:48:29.127Z,74.24
2023-01-01T20:51:14.707Z,74.10
2023-01-01T20:54:00.487Z,74.02
2023-01-01T20:56:46.626Z,74.44
2023-01-01T20:59:37.469Z,74.55
2023-01-01T21:02:24.089Z,74.29
2023-01-01T21:05:10.086Z,74.10
2023-01-01T21:07:55.476Z,74.04
2023-01-01T21:10:41.280Z,73.96
2023-01-01T21:13:27.607Z,73.62
2023-01-01T21:16:31.387Z,73.72
2023-01-01T21:19:20.095Z,73.62
2023-01-01T21:22:12.649Z,73.47
2023-01-01T21:25:16.944Z,73.24
2023-01-01T21:28:14.553Z,72.57
2023-01-01T21:31:01.390Z,73.46
2023-01-01T21:33:47.177Z,73.22
2023-01-01T21:36:33.683Z,72.83
2023-01-01T21:39:27.447Z,72.63
2023-01-01T21:42:25.553Z,72.93
2023-01-01T21:45:29.767Z,72.30
2023-01-01T21:48:22.782Z,71.97
2023-01-01T21:51:30.631Z,71.52
2023-01-01T21:54:20.967Z,72.09
2023-01-01T21:57:37.906Z,71.56
2023-01-01T22:00:27.370Z,72.23
2023-01-01T22:03:14.753Z,72.75
2023-01-01T22:06:00.698Z,72.19
2023-01-01T22:08:48.147Z,72.21
2023-01-01T22:11:36.351Z,72.05
2023-01-01T22:14:27.834Z,72.24
2023-01-01T22:17:19.267Z,72.12
2023-01-01T22:20:23.841Z,72.22
2023-01-01T22:23:21.806Z,72.27
2023-01-01T22:26:27.748Z,71.93
2023-01-01T22:29:24.724Z,72.56
2023-01-01T22:32:26.327Z,72.01
2023-01-01T22:35:28.692Z,72.17
2023-01-01T22:38:21.236Z,72.07
2023-01-01T22:41:08.321Z,72.39
2023-01-01T22:44:03.712Z,72.97
2023-01-01T22:46:49.131Z,72.52
2023-01-01T22:49:46.734Z,72.30
2023-01-01T22:52:32.095Z,72.81
2023-01-01T22:55:17.609Z,72.67
2023-01-01T22:58:02.794Z,73.51
2023-01-01T23:00:48.615Z,73.92
2023-01-01T23:03:34.113Z,73.48
2023-01-01T23:06:19.897Z,73.58
2023-01-01T23:09:08.898Z,73.34
2023-01-01T23:11:55.902Z,72.98
2023-01-01T23:15:00.028Z,72.44
2023-01-01T23:17:45.355Z,72.15
2023-01-01T23:20:31.073Z,72.02
2023-01-01T23:23:16.804Z,72.52
2023-01-01T23:26:03.505Z,73.08
2023-01-01T23:28:49.359Z,73.09
2023-01-01T23:31:36.233Z,72.43
2023-01-01T23:34:22.108Z,72.21
2023-01-01T23:37:07.662Z,72.45
2023-01-01T23:39:54.273Z,71.95
2023-01-01T23:42:39.884Z,72.23
2023-01-01T23:45:25.428Z,72.15
2023-01-01T23:48:11.183Z,72.29
2023-01-01T23:50:57.702Z,71.79
2023-01-01T23:53:44.510Z,72.06
2023-01-01T23:56:29.899Z,71.90
2023-01-01T23:59:15.245Z,72.22
